Time;durP1;ratioP1;P1;durP2;ratioP2;P2;SDS_P1;SDS_P2;PMS_P1;PMS_P2;Temp;Humidity;BMP_temperature;BMP_pressure;BME280_temperature;BME280_humidity;BME280_pressure;Samples;Min_cycle;Max_cycle;Signal;HPM_P1;HPM_P2
2022/09/27 00:02:17;;;;;;;;;9.67;7.67;;;;;13.27;83.15;99925.66;5079324;28;45372;-74
2022/09/27 00:04:42;;;;;;;;;7.67;6.00;;;;;13.23;82.66;99933.25;5080206;27;45745;-75
2022/09/27 00:07:09;;;;;;;;;5.67;5.67;;;;;13.19;83.03;99929.38;5078230;28;46080;-75
2022/09/27 00:09:35;;;;;;;;;5.00;4.67;;;;;13.13;82.91;99922.22;5079944;27;45739;-75
2022/09/27 00:12:01;;;;;;;;;6.67;6.00;;;;;13.08;83.05;99919.38;5079057;28;45358;-74
2022/09/27 00:14:26;;;;;;;;;4.33;3.00;;;;;13.09;83.11;99932.50;5079181;28;45317;-75
2022/09/27 00:16:51;;;;;;;;;4.67;4.67;;;;;13.14;83.03;99937.19;5082995;27;45994;-75
2022/09/27 00:19:20;;;;;;;;;4.33;3.00;;;;;13.03;83.14;99933.34;5088250;27;47019;-74
2022/09/27 00:21:46;;;;;;;;;4.00;4.00;;;;;13.10;82.82;99939.47;5078832;28;45390;-75
2022/09/27 00:24:14;;;;;;;;;4.67;4.67;;;;;13.08;83.19;99935.41;5080069;27;45446;-75
2022/09/27 00:26:39;;;;;;;;;5.00;3.33;;;;;13.09;83.20;99931.69;5078833;28;46313;-74
2022/09/27 00:29:05;;;;;;;;;3.00;3.00;;;;;13.11;83.03;99942.97;5079253;27;45350;-75
2022/09/27 00:31:31;;;;;;;;;3.00;3.00;;;;;13.10;83.44;99942.16;5094513;27;45314;-75
2022/09/27 00:34:01;;;;;;;;;5.33;5.33;;;;;13.18;83.42;99949.09;5078519;27;45366;-75
2022/09/27 00:36:28;;;;;;;;;3.00;3.00;;;;;13.19;83.24;99952.56;5076268;28;46186;-75
2022/09/27 00:38:54;;;;;;;;;4.33;4.00;;;;;13.19;83.26;99956.06;5077325;27;46624;-75
2022/09/27 00:41:23;;;;;;;;;4.00;4.00;;;;;13.20;83.42;99955.03;5077706;27;45319;-74
2022/09/27 00:43:54;;;;;;;;;4.00;3.33;;;;;13.19;83.64;99948.06;5077883;27;45382;-75
2022/09/27 00:46:26;;;;;;;;;3.00;3.00;;;;;13.32;83.34;99957.84;5077644;27;45743;-75
2022/09/27 00:49:10;;;;;;;;;4.00;3.00;;;;;13.29;83.40;99954.81;5078592;27;45672;-75
2022/09/27 00:51:38;;;;;;;;;3.00;3.00;;;;;13.29;82.88;99958.28;5078320;27;45397;-75
2022/09/27 00:54:06;;;;;;;;;3.67;3.67;;;;;13.34;83.15;99974.50;5062138;28;45441;-75
2022/09/27 00:56:32;;;;;;;;;3.67;3.00;;;;;13.32;83.32;99965.06;5075950;28;46516;-75
2022/09/27 00:59:13;;;;;;;;;1.67;1.00;;;;;13.28;83.85;99961.16;5075840;27;47293;-75
2022/09/27 01:01:39;;;;;;;;;3.33;3.33;;;;;13.33;84.06;99970.19;5077467;28;45401;-75
2022/09/27 01:04:17;;;;;;;;;4.00;3.67;;;;;13.37;83.82;99963.41;5077465;27;45378;-75
2022/09/27 01:06:42;;;;;;;;;4.67;4.33;;;;;13.37;83.21;99983.91;5078380;28;45751;-75
2022/09/27 01:09:09;;;;;;;;;4.00;4.00;;;;;13.41;83.62;99973.66;5077636;28;47557;-75
2022/09/27 01:11:53;;;;;;;;;3.00;2.67;;;;;13.44;83.69;99984.69;5079466;27;45432;-74
2022/09/27 01:14:52;;;;;;;;;3.00;2.33;;;;;13.49;83.31;99974.25;5078060;28;45626;-75
2022/09/27 01:17:48;;;;;;;;;3.33;3.33;;;;;13.49;83.33;99976.91;5091706;27;45393;-75
2022/09/27 01:20:22;;;;;;;;;2.67;2.00;;;;;13.48;83.12;99971.75;5079452;27;45472;-75
2022/09/27 01:23:25;;;;;;;;;4.00;4.00;;;;;13.47;83.47;99978.13;5079107;28;45452;-75
2022/09/27 01:25:56;;;;;;;;;3.00;3.00;;;;;13.44;83.32;99976.69;5065682;28;45323;-75
2022/09/27 01:28:34;;;;;;;;;3.67;3.67;;;;;13.43;83.06;99987.56;5077898;28;46983;-75
2022/09/27 01:31:05;;;;;;;;;2.33;2.33;;;;;13.42;83.14;99977.94;5077908;28;47564;-75
2022/09/27 01:34:25;;;;;;;;;3.33;3.33;;;;;13.40;83.27;99975.47;5079252;27;45418;-75
2022/09/27 01:37:00;;;;;;;;;4.67;3.33;;;;;13.37;82.92;99975.91;5020022;28;45341;-75
2022/09/27 01:39:44;;;;;;;;;5.33;3.00;;;;;13.32;82.86;99978.41;5076331;28;46350;-75
2022/09/27 01:42:27;;;;;;;;;4.00;4.00;;;;;13.32;82.99;99981.06;5079036;28;46036;-75
2022/09/27 01:45:14;;;;;;;;;3.67;3.67;;;;;13.29;82.99;99976.97;5079151;27;45286;-75
2022/09/27 01:47:44;;;;;;;;;5.33;4.00;;;;;13.18;82.55;99965.09;5077658;28;45355;-75
2022/09/27 01:50:16;;;;;;;;;5.00;4.33;;;;;13.19;82.71;99979.25;5079173;27;45708;-75
2022/09/27 01:52:51;;;;;;;;;4.33;4.33;;;;;13.13;82.68;99976.41;5077040;28;48319;-76
2022/09/27 01:55:23;;;;;;;;;2.67;2.67;;;;;13.09;82.68;99972.53;5077535;28;45433;-75
2022/09/27 01:58:05;;;;;;;;;3.00;3.00;;;;;13.06;82.96;99988.94;5077612;28;45346;-75
2022/09/27 02:00:32;;;;;;;;;3.00;3.00;;;;;13.02;82.92;99989.56;5078905;27;45248;-75
2022/09/27 02:03:04;;;;;;;;;5.00;3.00;;;;;13.02;83.06;99987.72;5078766;27;45444;-75
2022/09/27 02:05:51;;;;;;;;;2.33;2.00;;;;;13.01;83.50;99988.75;5077575;28;45338;-75
2022/09/27 02:08:40;;;;;;;;;3.33;3.33;;;;;13.03;83.32;99997.38;5078548;27;45234;-75
2022/09/27 02:11:10;;;;;;;;;7.00;4.33;;;;;13.02;83.85;99993.03;5078482;28;45433;-75
2022/09/27 02:13:59;;;;;;;;;4.67;3.33;;;;;12.98;83.55;99981.16;5078158;28;46338;-75
2022/09/27 02:16:51;;;;;;;;;4.00;4.00;;;;;13.02;83.71;99987.72;5082520;27;45283;-75
2022/09/27 02:19:44;;;;;;;;;5.33;5.00;;;;;13.02;83.44;99990.38;5078784;28;45215;-75
2022/09/27 02:22:31;;;;;;;;;3.67;3.67;;;;;13.00;83.23;99985.25;5066732;28;45340;-76
2022/09/27 02:25:33;;;;;;;;;5.00;4.00;;;;;12.98;83.53;99992.66;5076755;28;47375;-75
2022/09/27 02:28:01;;;;;;;;;3.00;3.00;;;;;12.97;83.45;99985.69;5078708;28;45427;-74
2022/09/27 02:30:27;;;;;;;;;3.00;3.00;;;;;12.92;83.15;99963.31;5081572;28;45386;-75
2022/09/27 02:32:53;;;;;;;;;3.00;3.00;;;;;12.91;83.30;99977.69;5082013;27;45226;-75
2022/09/27 02:35:23;;;;;;;;;3.67;3.00;;;;;12.87;83.35;99982.63;5081752;27;46327;-75
2022/09/27 02:37:50;;;;;;;;;3.67;3.33;;;;;12.84;83.41;99975.84;5082187;27;45305;-75
2022/09/27 02:40:16;;;;;;;;;4.33;4.33;;;;;12.82;83.21;99979.75;5082007;27;45292;-75
2022/09/27 02:42:43;;;;;;;;;3.00;3.00;;;;;12.74;83.25;99962.13;5080264;28;45491;-74
2022/09/27 02:45:10;;;;;;;;;5.67;2.67;;;;;12.76;83.28;99981.41;5081815;28;46693;-75
2022/09/27 02:47:54;;;;;;;;;3.33;3.00;;;;;12.73;83.48;99973.84;5080139;28;45402;-75
2022/09/27 02:50:57;;;;;;;;;3.00;3.00;;;;;12.74;83.46;99978.97;5081900;28;45286;-75
2022/09/27 02:53:35;;;;;;;;;3.00;3.00;;;;;12.77;83.63;99974.22;5068410;28;46478;-75
2022/09/27 02:56:19;;;;;;;;;1.67;1.67;;;;;12.75;83.96;99972.59;5080172;28;47376;-75
2022/09/27 02:59:20;;;;;;;;;3.67;2.00;;;;;12.77;83.65;99968.88;5081543;28;45317;-75
2022/09/27 03:02:20;;;;;;;;;2.33;2.33;;;;;12.73;83.76;99961.31;5041574;28;45252;-75
2022/09/27 03:04:56;;;;;;;;;3.67;3.00;;;;;12.82;83.90;99971.75;5079893;27;45381;-74
2022/09/27 03:07:22;;;;;;;;;2.00;2.00;;;;;12.84;83.73;99988.38;5080069;28;46178;-75
2022/09/27 03:09:50;;;;;;;;;2.33;2.33;;;;;12.83;83.55;99984.06;5081023;27;45327;-74
2022/09/27 03:12:21;;;;;;;;;2.67;2.00;;;;;12.83;83.73;99971.56;5081734;27;45325;-75
2022/09/27 03:14:47;;;;;;;;;3.00;2.00;;;;;12.83;83.41;99970.72;5079795;28;46281;-75
2022/09/27 03:17:13;;;;;;;;;2.00;2.00;;;;;12.82;83.53;99969.09;5085196;27;45429;-75
2022/09/27 03:19:38;;;;;;;;;4.67;3.00;;;;;12.81;83.35;99970.13;5079741;28;45407;-75
2022/09/27 03:22:03;;;;;;;;;2.33;2.33;;;;;12.80;83.54;99969.31;5081613;27;45330;-75
2022/09/27 03:24:29;;;;;;;;;3.00;2.00;;;;;12.84;83.49;99964.38;5076218;28;47498;-75
2022/09/27 03:26:54;;;;;;;;;3.33;2.00;;;;;12.83;83.08;99965.41;5076013;28;46320;-75
2022/09/27 03:29:20;;;;;;;;;3.00;1.00;;;;;12.78;83.14;99967.88;5081347;27;45366;-74
2022/09/27 03:31:45;;;;;;;;;1.00;1.00;;;;;12.69;83.59;99962.75;5081342;27;45528;-75
2022/09/27 03:34:10;;;;;;;;;4.00;2.00;;;;;12.73;83.69;99971.16;5081001;27;46030;-75
2022/09/27 03:36:36;;;;;;;;;5.33;3.67;;;;;12.80;83.62;99974.63;5081135;27;46446;-75
2022/09/27 03:39:01;;;;;;;;;2.67;2.33;;;;;12.85;83.98;99976.69;5080708;27;45283;-75
2022/09/27 03:41:26;;;;;;;;;1.33;1.33;;;;;12.93;84.23;99992.44;5081017;27;45196;-75
2022/09/27 03:43:52;;;;;;;;;3.33;3.00;;;;;12.89;83.98;99977.91;5080671;27;45561;-75
2022/09/27 03:46:17;;;;;;;;;2.00;2.00;;;;;12.94;84.18;99988.78;5080932;27;45405;-75
2022/09/27 03:48:42;;;;;;;;;2.33;2.33;;;;;12.97;84.11;99985.69;5080940;27;45282;-75
2022/09/27 03:51:11;;;;;;;;;1.00;1.00;;;;;13.00;84.07;99987.91;5080674;27;45292;-75
2022/09/27 03:53:36;;;;;;;;;3.00;2.00;;;;;13.02;84.07;99977.03;5080616;27;45349;-75
2022/09/27 03:56:01;;;;;;;;;1.33;1.33;;;;;13.06;83.76;99982.78;5080523;28;45335;-75
2022/09/27 03:58:27;;;;;;;;;2.33;1.33;;;;;13.04;83.77;99974.16;5079273;28;45854;-75
2022/09/27 04:00:52;;;;;;;;;3.00;3.00;;;;;13.03;83.49;99975.19;5079427;28;45476;-75
2022/09/27 04:03:18;;;;;;;;;2.33;2.00;;;;;13.04;83.74;99971.50;5080497;27;45491;-75
2022/09/27 04:05:44;;;;;;;;;1.33;1.00;;;;;13.00;83.54;99966.56;5080775;27;45655;-74
2022/09/27 04:08:10;;;;;;;;;3.00;2.00;;;;;13.06;83.85;99966.78;5080042;27;45393;-75
2022/09/27 04:10:36;;;;;;;;;2.33;1.67;;;;;13.06;83.83;99978.28;5080857;27;45408;-75
2022/09/27 04:13:02;;;;;;;;;2.00;2.00;;;;;13.04;84.10;99960.81;5080192;27;45508;-76
2022/09/27 04:15:28;;;;;;;;;3.33;2.33;;;;;13.03;83.84;99956.53;5079077;28;48068;-75
2022/09/27 04:17:53;;;;;;;;;3.33;2.33;;;;;13.07;83.89;99963.06;5084220;27;45264;-75
2022/09/27 04:20:18;;;;;;;;;1.67;1.33;;;;;13.05;83.62;99951.81;5080626;27;45179;-75
2022/09/27 04:22:44;;;;;;;;;1.67;1.67;;;;;13.05;83.72;99952.63;5080145;27;45361;-74
2022/09/27 04:25:10;;;;;;;;;2.67;2.67;;;;;12.99;83.82;99951.63;5080052;27;45323;-75
2022/09/27 04:27:36;;;;;;;;;2.33;2.33;;;;;13.03;84.04;99949.34;5078768;28;45891;-75
2022/09/27 04:30:03;;;;;;;;;1.67;1.67;;;;;13.05;83.59;99959.81;5078973;28;45379;-75
2022/09/27 04:32:28;;;;;;;;;2.00;2.00;;;;;13.02;83.61;99952.22;5079868;27;45453;-75
2022/09/27 04:37:37;;;;;;;;;2.33;2.33;;;;;12.99;84.05;99951.63;5079794;28;45319;-75
2022/09/27 04:40:04;;;;;;;;;2.00;2.00;;;;;12.92;84.16;99952.66;5080097;27;45961;-75
2022/09/27 04:42:29;;;;;;;;;2.00;2.00;;;;;12.95;83.86;99958.41;5078418;28;46437;-75
2022/09/27 04:44:54;;;;;;;;;5.00;3.67;;;;;12.89;84.10;99951.22;5079931;27;46228;-75
2022/09/27 04:47:20;;;;;;;;;2.67;2.33;;;;;12.96;84.27;99959.22;5079767;27;45366;-75
2022/09/27 04:49:46;;;;;;;;;2.67;2.33;;;;;12.96;84.45;99959.22;5079917;27;45595;-75
2022/09/27 04:52:14;;;;;;;;;2.00;1.67;;;;;12.92;84.35;99945.47;5077758;28;46017;-75
2022/09/27 04:54:39;;;;;;;;;2.00;2.00;;;;;12.96;84.29;99949.34;5077939;28;48188;-75
2022/09/27 04:57:05;;;;;;;;;2.00;2.00;;;;;12.95;84.25;99953.06;5078490;28;45272;-75
2022/09/27 04:59:30;;;;;;;;;4.67;2.00;;;;;12.94;84.20;99950.59;5078313;28;45493;-75
2022/09/27 05:01:58;;;;;;;;;3.33;3.00;;;;;12.93;83.97;99954.31;5079829;27;45321;-75
2022/09/27 05:04:24;;;;;;;;;2.00;2.00;;;;;12.93;84.17;99956.97;5079365;27;46420;-75
2022/09/27 05:06:49;;;;;;;;;3.00;3.00;;;;;12.94;84.22;99954.09;5079795;27;45412;-75
2022/09/27 05:09:14;;;;;;;;;2.00;2.00;;;;;12.92;84.21;99953.47;5079525;27;45316;-75
2022/09/27 05:11:40;;;;;;;;;2.33;2.00;;;;;12.94;84.23;99954.09;5079557;27;45386;-75
2022/09/27 05:14:05;;;;;;;;;3.00;3.00;;;;;12.95;83.91;99947.72;5079414;27;45532;-75
2022/09/27 05:16:32;;;;;;;;;4.00;4.00;;;;;12.96;84.29;99943.22;5082096;27;45944;-75
2022/09/27 05:18:57;;;;;;;;;6.00;3.00;;;;;12.90;84.48;99939.53;5078271;28;45338;-75
2022/09/27 05:21:23;;;;;;;;;1.33;1.33;;;;;12.95;84.55;99952.22;5077840;28;47234;-75
2022/09/27 05:23:48;;;;;;;;;3.00;2.00;;;;;12.94;84.36;99945.28;5079171;27;45403;-75
2022/09/27 05:26:13;;;;;;;;;2.67;2.67;;;;;12.94;84.49;99942.59;5095169;27;45788;-75
2022/09/27 05:28:40;;;;;;;;;3.33;3.00;;;;;12.98;84.36;99951.81;5079595;27;45239;-75
2022/09/27 05:31:06;;;;;;;;;4.00;3.67;;;;;12.95;84.36;99946.91;5079112;27;45475;-75
2022/09/27 05:33:33;;;;;;;;;6.00;2.67;;;;;12.99;84.70;99956.16;5079049;28;45304;-75
2022/09/27 05:35:58;;;;;;;;;2.67;2.67;;;;;12.99;84.96;99962.28;5079210;27;45256;-75
2022/09/27 05:38:24;;;;;;;;;2.00;2.00;;;;;13.03;84.52;99964.53;5077869;28;45358;-74
2022/09/27 05:40:50;;;;;;;;;3.33;3.33;;;;;12.99;84.65;99962.28;5078937;27;45599;-75
2022/09/27 05:43:17;;;;;;;;;1.67;1.33;;;;;13.03;84.99;99951.19;5079120;27;45446;-76
2022/09/27 05:45:43;;;;;;;;;3.00;1.67;;;;;13.00;85.21;99947.91;5078921;27;45217;-74
2022/09/27 05:48:11;;;;;;;;;4.00;1.33;;;;;13.02;85.46;99958.38;5079353;27;45329;-75
2022/09/27 05:50:37;;;;;;;;;2.00;2.00;;;;;12.99;85.01;99953.47;5077501;28;46338;-75
2022/09/27 05:53:02;;;;;;;;;2.33;1.33;;;;;13.03;85.20;99953.88;5077409;28;45826;-74
2022/09/27 05:55:28;;;;;;;;;2.67;2.33;;;;;12.98;84.93;99949.16;5079017;27;45365;-74
2022/09/27 05:57:57;;;;;;;;;5.00;3.67;;;;;12.99;85.09;99959.63;5079198;27;45386;-74
2022/09/27 06:00:24;;;;;;;;;1.33;1.33;;;;;13.00;84.95;99966.56;5079051;27;45259;-74
2022/09/27 06:02:58;;;;;;;;;8.33;8.00;;;;;13.04;85.44;99968.81;5077213;28;47388;-74
2022/09/27 06:05:26;;;;;;;;;10.33;10.33;;;;;12.99;85.26;99953.47;5081530;27;45346;-75
2022/09/27 06:07:58;;;;;;;;;11.00;6.67;;;;;13.08;85.41;99968.19;5082112;27;45655;-74
2022/09/27 06:10:24;;;;;;;;;9.33;7.00;;;;;13.06;85.26;99959.59;5082133;28;45377;-75
2022/09/27 06:12:49;;;;;;;;;2.33;2.33;;;;;13.08;85.14;99956.72;5082001;27;45553;-75
2022/09/27 06:15:15;;;;;;;;;4.67;3.67;;;;;13.11;85.32;99941.09;5097732;27;45694;-75
2022/09/27 06:17:40;;;;;;;;;4.00;3.33;;;;;13.22;84.92;99952.16;5084077;27;45410;-75
2022/09/27 06:20:07;;;;;;;;;5.33;2.33;;;;;13.23;84.96;99945.81;5078925;27;45952;-75
2022/09/27 06:22:33;;;;;;;;;5.00;3.00;;;;;13.29;84.49;99954.81;5079682;27;46421;-75
2022/09/27 06:24:59;;;;;;;;;6.67;3.33;;;;;13.24;84.78;99950.94;5081997;27;45338;-75
2022/09/27 06:27:25;;;;;;;;;5.33;4.33;;;;;13.23;84.70;99932.47;5082244;28;45472;-74
2022/09/27 06:29:50;;;;;;;;;5.33;5.00;;;;;13.28;84.86;99943.31;5081922;27;45339;-76
2022/09/27 06:32:16;;;;;;;;;2.67;2.67;;;;;13.29;84.87;99947.59;5081826;28;45805;-74
2022/09/27 06:34:41;;;;;;;;;4.00;2.67;;;;;13.33;85.02;99942.69;5082297;27;45196;-75
2022/09/27 06:37:07;;;;;;;;;4.33;3.00;;;;;13.36;85.38;99940.41;5081047;28;45220;-75
2022/09/27 06:39:33;;;;;;;;;4.33;3.33;;;;;13.44;84.84;99936.66;5080393;28;47482;-75
2022/09/27 06:41:59;;;;;;;;;1.33;1.33;;;;;13.48;85.01;99939.72;5082154;27;46487;-74
2022/09/27 06:44:25;;;;;;;;;2.33;2.33;;;;;13.56;84.97;99950.19;5081902;28;45338;-75
2022/09/27 06:46:51;;;;;;;;;2.00;2.00;;;;;13.52;84.28;99940.97;5081511;28;45246;-75
2022/09/27 06:49:17;;;;;;;;;3.00;3.00;;;;;13.53;84.52;99936.44;5082284;27;45405;-74
2022/09/27 06:51:42;;;;;;;;;4.00;4.00;;;;;13.55;84.30;99959.22;5082042;28;45467;-77
2022/09/27 06:54:08;;;;;;;;;6.67;6.67;;;;;13.54;84.37;99956.78;5082637;27;45899;-75
2022/09/27 06:56:33;;;;;;;;;4.00;4.00;;;;;13.59;84.67;99959.63;5082392;27;45519;-75
2022/09/27 07:01:43;;;;;;;;;3.67;3.00;;;;;13.65;84.64;99966.78;5082499;28;45863;-75
2022/09/27 07:04:10;;;;;;;;;6.67;5.00;;;;;13.70;84.78;99966.13;5082257;27;45275;-75
2022/09/27 07:06:36;;;;;;;;;3.00;3.00;;;;;13.74;84.43;99964.69;5067667;28;45311;-76
2022/09/27 07:09:02;;;;;;;;;3.33;3.00;;;;;13.73;84.25;99958.53;5081635;27;45234;-75
2022/09/27 07:11:28;;;;;;;;;5.00;4.33;;;;;13.75;84.78;99960.97;5081164;27;45618;-74
2022/09/27 07:13:55;;;;;;;;;3.00;3.00;;;;;13.75;84.37;99958.31;5080226;27;45415;-78
2022/09/27 07:16:21;;;;;;;;;3.67;2.00;;;;;13.75;84.06;99967.16;5086275;27;45514;-77
2022/09/27 07:18:48;;;;;;;;;5.00;4.33;;;;;13.83;84.15;99966.06;5080792;27;46067;-78
2022/09/27 07:21:15;;;;;;;;;5.33;4.33;;;;;13.89;84.40;99985.75;5079996;28;48285;-77
2022/09/27 07:23:41;;;;;;;;;3.67;2.67;;;;;13.94;84.03;99983.25;5079444;28;45505;-77
2022/09/27 07:26:09;;;;;;;;;2.67;2.00;;;;;13.91;83.93;99978.34;5081528;27;45260;-77
2022/09/27 07:28:34;;;;;;;;;5.00;3.67;;;;;13.94;83.68;99985.91;5079713;28;46284;-77
2022/09/27 07:31:01;;;;;;;;;4.33;4.33;;;;;13.95;83.58;99981.41;5079870;28;47125;-76
2022/09/27 07:33:27;;;;;;;;;2.00;2.00;;;;;13.97;83.52;99980.16;5079732;28;45359;-75
2022/09/27 07:35:52;;;;;;;;;3.33;3.00;;;;;14.03;83.86;99993.69;5080968;27;45527;-77
2022/09/27 07:38:18;;;;;;;;;2.00;2.00;;;;;14.13;83.62;99996.72;5070449;27;45985;-77
2022/09/27 07:40:44;;;;;;;;;3.00;3.00;;;;;14.19;83.61;100003.84;5068450;27;45471;-78
2022/09/27 07:43:11;;;;;;;;;4.67;3.33;;;;;14.18;83.18;99991.50;5078606;28;45478;-78
2022/09/27 07:45:37;;;;;;;;;2.67;2.00;;;;;14.30;83.20;100012.22;5079830;27;45471;-79
2022/09/27 07:48:08;;;;;;;;;3.00;2.00;;;;;14.33;82.74;100011.75;5079202;28;45391;-78
2022/09/27 07:50:34;;;;;;;;;4.00;2.00;;;;;14.30;82.35;100009.53;5077568;27;48197;-78
2022/09/27 07:52:59;;;;;;;;;5.00;3.67;;;;;14.32;82.65;100000.25;5078444;27;45398;-77
2022/09/27 07:55:25;;;;;;;;;1.67;1.67;;;;;14.37;82.22;100008.44;5079483;27;45897;-77
2022/09/27 07:57:50;;;;;;;;;3.33;2.00;;;;;14.40;82.25;100001.84;5077319;27;45569;-78
2022/09/27 08:00:19;;;;;;;;;4.33;3.00;;;;;14.51;82.29;100016.34;5077691;27;47175;-79
2022/09/27 08:02:44;;;;;;;;;2.67;2.33;;;;;14.49;81.95;100013.88;5079768;27;45462;-77
2022/09/27 08:05:12;;;;;;;;;2.33;2.33;;;;;14.55;81.60;100008.72;5080074;27;45402;-78
2022/09/27 08:07:38;;;;;;;;;2.00;2.00;;;;;14.61;81.34;100029.25;5079449;27;45437;-78
2022/09/27 08:10:04;;;;;;;;;1.00;1.00;;;;;14.59;80.48;100031.31;5079897;27;46524;-77
2022/09/27 08:12:30;;;;;;;;;1.67;1.67;;;;;14.60;80.79;100033.75;5079837;27;45376;-78
2022/09/27 08:14:57;;;;;;;;;2.00;2.00;;;;;14.61;80.77;100031.91;5078350;27;45702;-76
2022/09/27 08:17:23;;;;;;;;;2.67;2.67;;;;;14.66;80.77;100039.28;5082145;27;45279;-76
2022/09/27 08:19:48;;;;;;;;;3.67;2.67;;;;;14.68;80.24;100040.69;5080127;27;46466;-76
2022/09/27 08:22:15;;;;;;;;;3.33;2.33;;;;;14.67;80.13;100040.91;5080530;27;45205;-76
2022/09/27 08:24:41;;;;;;;;;1.00;1.00;;;;;14.68;79.13;100040.69;5079411;28;45426;-76
2022/09/27 08:27:07;;;;;;;;;1.67;1.67;;;;;14.70;79.59;100035.94;5079142;27;45719;-78
2022/09/27 08:29:33;;;;;;;;;3.33;3.00;;;;;14.71;79.17;100037.59;5082103;28;45528;-77
2022/09/27 08:31:59;;;;;;;;;2.00;1.67;;;;;14.72;78.86;100041.06;5080428;28;45550;-77
2022/09/27 08:34:24;;;;;;;;;2.33;2.00;;;;;14.75;78.83;100044.13;5079999;28;45418;-78
2022/09/27 08:36:49;;;;;;;;;3.00;2.33;;;;;14.75;78.55;100038.78;5076867;27;47098;-78
2022/09/27 08:39:15;;;;;;;;;6.00;3.00;;;;;14.77;78.93;100039.41;5078525;27;45588;-77
2022/09/27 08:42:07;;;;;;;;;3.00;1.00;;;;;14.82;78.88;100045.97;5076759;27;45434;-77
2022/09/27 08:45:01;;;;;;;;;2.33;2.33;;;;;14.93;78.78;100047.13;5076838;27;45461;-78
2022/09/27 08:47:35;;;;;;;;;2.00;2.00;;;;;14.98;78.64;100052.59;5065949;27;45355;-77
2022/09/27 08:50:35;;;;;;;;;2.00;2.00;;;;;15.02;78.31;100051.13;5071368;28;45393;-78
2022/09/27 08:53:12;;;;;;;;;4.00;2.00;;;;;15.05;77.90;100050.69;5068968;27;45590;-77
2022/09/27 08:55:42;;;;;;;;;3.00;1.33;;;;;15.06;77.57;100038.97;5079931;27;45421;-77
2022/09/27 08:58:24;;;;;;;;;1.33;1.33;;;;;15.07;77.30;100040.59;5080156;28;45386;-78
2022/09/27 09:00:54;;;;;;;;;1.33;1.00;;;;;15.11;77.22;100046.28;5081298;27;45419;-78
2022/09/27 09:03:23;;;;;;;;;2.00;2.00;;;;;15.13;76.96;100046.91;5080831;28;45551;-77
2022/09/27 09:06:08;;;;;;;;;2.00;2.00;;;;;15.16;77.03;100038.44;5081414;27;45424;-78
2022/09/27 09:08:47;;;;;;;;;1.67;1.67;;;;;15.25;76.64;100042.47;5080085;28;46442;-78
2022/09/27 09:14:40;;;;;;;;;3.00;2.00;;;;;15.26;75.86;100044.09;5077219;27;45364;-77
2022/09/27 09:17:21;;;;;;;;;2.33;2.33;;;;;15.22;75.73;100034.88;5080740;28;45317;-77
2022/09/27 09:20:12;;;;;;;;;2.67;2.00;;;;;15.25;75.72;100028.25;5085822;27;45503;-78
2022/09/27 09:22:44;;;;;;;;;3.00;1.67;;;;;15.38;75.86;100035.31;5069485;28;45290;-77
2022/09/27 09:25:28;;;;;;;;;2.33;2.00;;;;;15.49;75.86;100029.22;5081587;27;45342;-78
2022/09/27 09:27:59;;;;;;;;;2.00;2.00;;;;;15.63;74.73;100023.69;5082402;28;45267;-77
2022/09/27 09:30:43;;;;;;;;;0.67;0.67;;;;;15.64;74.10;100014.59;5084096;28;45483;-78
2022/09/27 09:33:29;;;;;;;;;1.00;0.67;;;;;15.70;73.42;100016.38;5084320;28;48181;-79
2022/09/27 09:36:04;;;;;;;;;0.67;0.33;;;;;15.68;72.96;100028.38;5085820;28;45330;-78
2022/09/27 09:38:29;;;;;;;;;1.00;1.00;;;;;15.69;72.99;100030.84;5091341;27;45219;-77
2022/09/27 09:40:59;;;;;;;;;0.00;0.00;;;;;15.70;73.15;100029.78;5095082;28;45574;-77
2022/09/27 09:43:27;;;;;;;;;0.33;0.00;;;;;15.73;72.62;100031.19;5109638;27;47115;-76
2022/09/27 09:46:11;;;;;;;;;1.00;1.00;;;;;15.76;72.62;100028.06;5095792;27;45740;-77
2022/09/27 09:48:45;;;;;;;;;1.00;1.00;;;;;15.85;72.33;100023.19;5095885;27;45163;-77
2022/09/27 09:51:26;;;;;;;;;1.33;1.33;;;;;15.88;72.60;100012.84;5096846;27;45229;-78
2022/09/27 09:53:57;;;;;;;;;0.33;0.33;;;;;15.91;71.83;100000.84;5082849;28;45674;-78
2022/09/27 09:56:28;;;;;;;;;0.00;0.00;;;;;15.90;69.09;100009.94;5098531;27;45186;-77
2022/09/27 09:59:03;;;;;;;;;0.00;0.00;;;;;15.89;69.47;99995.72;5091913;28;45356;-74
2022/09/27 10:01:37;;;;;;;;;2.00;0.00;;;;;15.92;69.14;99983.72;5089234;27;45656;-74
2022/09/27 10:04:02;;;;;;;;;1.00;1.00;;;;;15.92;69.21;99978.38;5086431;28;45332;-74
2022/09/27 10:06:30;;;;;;;;;3.67;3.67;;;;;16.04;69.98;99973.06;5106554;27;45287;-76
2022/09/27 10:08:55;;;;;;;;;3.00;3.00;;;;;16.14;68.04;99980.56;5092425;27;45385;-75
2022/09/27 10:11:31;;;;;;;;;0.00;0.00;;;;;16.25;68.44;99990.47;5084064;27;45316;-77
2022/09/27 10:13:56;;;;;;;;;2.67;2.00;;;;;16.23;67.93;99984.53;5078450;28;45302;-76
2022/09/27 10:16:23;;;;;;;;;0.67;0.67;;;;;16.26;68.34;99978.69;5097604;27;45264;-78
2022/09/27 10:18:55;;;;;;;;;0.00;0.00;;;;;16.37;67.53;99981.66;5076204;28;45145;-78
2022/09/27 10:21:30;;;;;;;;;2.00;2.00;;;;;16.46;66.98;99987.50;5090836;28;46177;-77
2022/09/27 10:24:14;;;;;;;;;1.00;1.00;;;;;16.55;65.80;99977.22;5084916;28;48672;-77
2022/09/27 10:26:43;;;;;;;;;0.67;0.67;;;;;16.57;66.24;99978.63;5089732;28;45389;-78
2022/09/27 10:29:24;;;;;;;;;0.33;0.00;;;;;16.59;66.52;99979.22;5109939;27;45463;-77
2022/09/27 10:31:51;;;;;;;;;3.00;2.00;;;;;16.59;66.65;99970.34;5094133;27;45505;-76
2022/09/27 10:34:24;;;;;;;;;4.00;3.00;;;;;16.62;65.78;99967.19;5098923;27;45311;-76
2022/09/27 10:37:10;;;;;;;;;1.00;1.00;;;;;16.72;66.96;99974.66;5111343;27;45361;-74
2022/09/27 10:39:37;;;;;;;;;2.00;2.00;;;;;16.76;67.16;99973.94;5109500;27;45238;-75
2022/09/27 10:42:31;;;;;;;;;2.33;1.33;;;;;16.84;66.42;99969.25;5110300;27;44763;-77
2022/09/27 10:44:57;;;;;;;;;0.00;0.00;;;;;16.77;64.92;99953.31;5108697;27;47304;-75
2022/09/27 10:47:25;;;;;;;;;2.33;1.00;;;;;16.76;63.39;99960.53;5107749;27;45177;-76
2022/09/27 10:49:51;;;;;;;;;1.67;0.67;;;;;16.76;63.43;99954.38;5112192;27;45191;-75
2022/09/27 10:52:22;;;;;;;;;2.00;2.00;;;;;16.73;63.73;99949.47;5110287;27;45454;-76
2022/09/27 10:55:18;;;;;;;;;1.00;1.00;;;;;16.75;62.54;99956.22;5095064;27;45449;-76
2022/09/27 10:57:50;;;;;;;;;1.00;1.00;;;;;16.81;63.65;99948.28;5087198;27;45212;-78
2022/09/27 11:00:32;;;;;;;;;4.00;4.00;;;;;16.84;62.46;99948.63;5088276;27;45238;-75
2022/09/27 11:03:04;;;;;;;;;4.67;4.33;;;;;16.91;63.20;99948.47;5084049;27;45455;-75
2022/09/27 11:05:37;;;;;;;;;3.33;3.33;;;;;16.98;63.52;99964.47;5084471;27;45475;-75
2022/09/27 11:08:28;;;;;;;;;1.67;1.67;;;;;17.00;63.57;99965.88;5084120;28;45390;-76
2022/09/27 11:11:00;;;;;;;;;0.67;0.33;;;;;16.97;61.46;99954.81;5085102;27;45557;-76
2022/09/27 11:13:31;;;;;;;;;0.67;0.67;;;;;16.87;60.29;99960.75;5085554;28;46982;-78
2022/09/27 11:16:34;;;;;;;;;2.67;2.67;;;;;16.86;62.47;99961.81;5098551;27;45297;-79
2022/09/27 11:19:18;;;;;;;;;2.00;2.00;;;;;16.77;61.45;99966.72;5084595;28;45935;-77
2022/09/27 11:21:46;;;;;;;;;0.33;0.33;;;;;16.61;60.85;99970.94;5072523;28;45593;-76
2022/09/27 11:24:27;;;;;;;;;0.67;0.67;;;;;16.68;61.03;99960.91;5075182;28;45436;-76
2022/09/27 11:27:11;;;;;;;;;1.33;1.33;;;;;16.73;62.02;99965.56;5077764;28;45596;-75
2022/09/27 11:30:02;;;;;;;;;2.00;2.00;;;;;16.84;62.38;99969.25;5087526;27;45405;-78
2022/09/27 11:32:34;;;;;;;;;3.00;1.67;;;;;16.91;62.49;99952.00;5079790;28;45424;-76
2022/09/27 11:35:27;;;;;;;;;3.00;3.00;;;;;17.05;64.83;99959.78;5085475;28;47134;-77
2022/09/27 11:38:27;;;;;;;;;3.00;3.00;;;;;17.13;66.20;99953.28;5090192;28;47440;-77
2022/09/27 11:40:56;;;;;;;;;3.00;3.00;;;;;17.27;66.43;99951.94;5057941;28;45650;-78
2022/09/27 11:43:37;;;;;;;;;3.00;1.00;;;;;17.35;67.23;99963.34;5095032;27;45280;-77
2022/09/27 11:46:25;;;;;;;;;4.33;4.00;;;;;17.46;67.52;99957.16;5094250;28;45888;-77
2022/09/27 11:49:29;;;;;;;;;2.00;2.00;;;;;17.51;67.07;99946.47;5097715;27;47157;-79
2022/09/27 11:52:13;;;;;;;;;1.67;1.67;;;;;17.50;66.99;99946.72;5085740;27;45516;-76
2022/09/27 11:54:57;;;;;;;;;5.00;4.00;;;;;17.46;66.45;99953.63;5090561;28;45246;-78
2022/09/27 11:57:32;;;;;;;;;2.67;2.67;;;;;17.44;66.89;99943.13;5094503;27;45868;-78
2022/09/27 12:00:16;;;;;;;;;3.00;3.00;;;;;17.48;66.86;99959.59;5090505;27;47346;-78
2022/09/27 12:03:19;;;;;;;;;1.00;1.00;;;;;17.46;66.56;99957.16;5090257;28;45448;-79